createdAt,value
2023-01-30T00:00:37.441Z,12.3
2023-01-30T00:06:21.461Z,12.9
2023-01-30T00:12:05.598Z,11.9
2023-01-30T00:17:49.408Z,11.8
2023-01-30T00:23:33.841Z,12.4
2023-01-30T00:29:18.034Z,12
2023-01-30T00:35:02.941Z,12.1
2023-01-30T00:40:46.863Z,11.7
2023-01-30T00:46:32.429Z,11.9
2023-01-30T00:52:16.894Z,11.9
2023-01-30T00:58:00.749Z,11.7
2023-01-30T01:03:44.684Z,12.4
2023-01-30T01:09:28.325Z,11.9
2023-01-30T01:15:13.209Z,11.7
2023-01-30T01:20:58.004Z,11.6
2023-01-30T01:26:42.413Z,11.9
2023-01-30T01:32:26.617Z,11.9
2023-01-30T01:38:10.506Z,11.2
2023-01-30T01:44:08.355Z,10.6
2023-01-30T01:49:52.252Z,10.8
2023-01-30T01:55:38.077Z,11.1
2023-01-30T02:01:22.767Z,10.4
2023-01-30T02:07:07.101Z,11
2023-01-30T02:12:52.146Z,10
2023-01-30T02:18:37.588Z,10
2023-01-30T02:24:32.710Z,9.8
2023-01-30T02:30:28.175Z,9.5
2023-01-30T02:36:17.119Z,9.6
2023-01-30T02:42:06.508Z,9.3
2023-01-30T02:47:55.221Z,9.6
2023-01-30T02:53:39.503Z,9.1
2023-01-30T02:59:28.370Z,9.1
2023-01-30T03:05:31.436Z,9.2
2023-01-30T03:11:15.804Z,8.5
2023-01-30T03:17:00.890Z,9.1
2023-01-30T03:22:44.795Z,8.8
2023-01-30T03:28:29.942Z,8.6
2023-01-30T03:34:13.903Z,8.9
2023-01-30T03:39:58.642Z,8.7
2023-01-30T03:45:42.269Z,8.5
2023-01-30T03:51:26.076Z,8.7
2023-01-30T03:57:10.112Z,9.6
2023-01-30T04:02:53.983Z,9.1
2023-01-30T04:08:37.876Z,8.7
2023-01-30T04:14:21.607Z,9
2023-01-30T04:20:05.617Z,9.5
2023-01-30T04:25:51.579Z,9.1
2023-01-30T04:31:35.382Z,8.8
2023-01-30T04:37:19.257Z,8.3
2023-01-30T04:43:04.000Z,8.7
2023-01-30T04:48:47.962Z,8.6
2023-01-30T04:54:31.935Z,8.7
2023-01-30T05:00:16.519Z,7.5
2023-01-30T05:06:00.300Z,8.4
2023-01-30T05:11:44.091Z,6.8
2023-01-30T05:17:28.157Z,6.7
2023-01-30T05:23:12.010Z,7
2023-01-30T05:28:57.833Z,6.5
2023-01-30T05:34:41.530Z,6.3
2023-01-30T05:40:25.275Z,6
2023-01-30T05:46:11.468Z,6.1
2023-01-30T05:51:55.366Z,6
2023-01-30T05:57:39.238Z,5.4
2023-01-30T06:03:23.467Z,5.2
2023-01-30T06:09:07.166Z,5
2023-01-30T06:14:50.974Z,4.8
2023-01-30T06:20:34.729Z,4.8
2023-01-30T06:26:18.659Z,4.6
2023-01-30T06:32:02.479Z,4.1
2023-01-30T06:37:46.538Z,4.4
2023-01-30T06:43:31.167Z,4.3
2023-01-30T06:49:15.211Z,4.6
2023-01-30T06:54:59.097Z,4.8
2023-01-30T07:00:43.871Z,4.5
2023-01-30T07:06:27.886Z,5
2023-01-30T07:12:12.775Z,4.6
2023-01-30T07:17:57.221Z,5.4
2023-01-30T07:23:40.983Z,5.8
2023-01-30T07:29:24.914Z,5.4
2023-01-30T07:35:08.919Z,5.7
2023-01-30T07:40:52.785Z,6.4
2023-01-30T07:46:36.779Z,6.2
2023-01-30T07:52:20.678Z,6
2023-01-30T07:58:04.584Z,6.5
2023-01-30T08:03:49.973Z,6.4
2023-01-30T08:09:33.704Z,6.5
2023-01-30T08:15:17.421Z,7.8
2023-01-30T08:21:02.811Z,10.7
2023-01-30T08:26:46.775Z,8.2
2023-01-30T08:32:30.707Z,8.1
2023-01-30T08:38:14.790Z,8.1
2023-01-30T08:43:58.850Z,7.2
2023-01-30T08:49:42.733Z,6.9
2023-01-30T08:55:26.706Z,6.3
2023-01-30T09:01:11.302Z,6.2
2023-01-30T09:06:54.973Z,6.4
2023-01-30T09:12:38.530Z,5.4
2023-01-30T09:18:23.237Z,5.2
2023-01-30T09:24:07.511Z,4.9
2023-01-30T09:29:51.233Z,5.1
2023-01-30T09:35:35.220Z,4.4
2023-01-30T09:41:33.514Z,4.4
2023-01-30T09:47:22.157Z,4.1
2023-01-30T09:53:07.779Z,4.3
2023-01-30T09:58:53.449Z,3.7
2023-01-30T10:05:00.387Z,3.4
2023-01-30T10:10:51.080Z,3
2023-01-30T10:16:45.064Z,2.7
2023-01-30T10:22:36.915Z,2.6
2023-01-30T10:28:24.254Z,2.4
2023-01-30T10:34:11.538Z,2.3
2023-01-30T10:40:00.626Z,2.1
2023-01-30T10:45:47.662Z,2.2
2023-01-30T10:51:41.565Z,2.1
2023-01-30T10:57:27.933Z,2.4
2023-01-30T11:03:22.769Z,1.9
2023-01-30T11:09:06.639Z,2.1
2023-01-30T11:15:01.587Z,1.6
2023-01-30T11:20:49.823Z,1.7
2023-01-30T11:26:47.971Z,2
2023-01-30T11:32:32.467Z,1.8
2023-01-30T11:38:22.570Z,1.9
2023-01-30T11:44:06.880Z,1.8
2023-01-30T11:50:23.379Z,1.9
2023-01-30T11:56:08.634Z,2.1
2023-01-30T12:02:01.721Z,1.9
2023-01-30T12:07:46.362Z,2.7
2023-01-30T12:13:34.595Z,1.8
2023-01-30T12:19:22.129Z,2
2023-01-30T12:25:11.335Z,1.8
2023-01-30T12:30:57.680Z,1.6
2023-01-30T12:36:46.319Z,1.8
2023-01-30T12:42:41.936Z,2
2023-01-30T12:49:08.201Z,2.1
2023-01-30T12:54:56.015Z,2.3
2023-01-30T13:00:46.794Z,2.3
2023-01-30T13:06:38.697Z,2.3
2023-01-30T13:12:28.055Z,2.3
2023-01-30T13:18:15.909Z,2.1
2023-01-30T13:24:07.143Z,2
2023-01-30T13:29:51.372Z,2.1
2023-01-30T13:35:38.054Z,1.8
2023-01-30T13:41:22.617Z,1.8
2023-01-30T13:47:12.407Z,2
2023-01-30T13:53:01.349Z,1.8
2023-01-30T13:58:49.007Z,2.2
2023-01-30T14:04:43.709Z,1.6
2023-01-30T14:10:28.778Z,1.9
2023-01-30T14:16:14.162Z,1.5
2023-01-30T14:22:02.151Z,1.8
2023-01-30T14:27:46.013Z,1.6
2023-01-30T14:33:43.831Z,1.6
2023-01-30T14:39:48.865Z,1.7
2023-01-30T14:45:47.317Z,1.5
2023-01-30T14:51:35.646Z,1.9
2023-01-30T14:57:23.064Z,2.1
2023-01-30T15:03:10.079Z,1.7
2023-01-30T15:08:54.168Z,1.9
2023-01-30T15:14:42.341Z,1.6
2023-01-30T15:20:39.980Z,1.9
2023-01-30T15:26:30.221Z,2
2023-01-30T15:32:21.390Z,1.8
2023-01-30T15:38:05.337Z,1.7
2023-01-30T15:44:00.696Z,1.8
2023-01-30T15:49:56.300Z,1.6
2023-01-30T15:55:40.250Z,2
2023-01-30T16:01:25.090Z,2
2023-01-30T16:07:24.570Z,1.7
2023-01-30T16:13:10.452Z,2
2023-01-30T16:18:57.727Z,2
2023-01-30T16:24:45.200Z,1.7
2023-01-30T16:30:30.937Z,2.1
2023-01-30T16:36:26.194Z,2.1
2023-01-30T16:42:22.354Z,2
2023-01-30T16:48:12.054Z,2.6
2023-01-30T16:53:58.665Z,2.5
2023-01-30T16:59:42.413Z,2.7
2023-01-30T17:05:27.545Z,2.1
2023-01-30T17:11:12.735Z,2.4
2023-01-30T17:17:06.991Z,2.9
2023-01-30T17:22:52.171Z,2.2
2023-01-30T17:28:36.004Z,2.3
2023-01-30T17:34:19.805Z,2.1
2023-01-30T17:40:03.578Z,2.3
2023-01-30T17:45:48.413Z,2.2
2023-01-30T17:51:32.715Z,2.3
2023-01-30T17:57:16.790Z,2.3
2023-01-30T18:03:01.042Z,2.3
2023-01-30T18:08:45.684Z,2.4
2023-01-30T18:14:30.711Z,1.9
2023-01-30T18:20:16.831Z,3
2023-01-30T18:26:01.413Z,2.1
2023-01-30T18:31:45.764Z,2.4
2023-01-30T18:37:30.881Z,2.3
2023-01-30T18:43:15.797Z,2.4
2023-01-30T18:49:00.121Z,2.4
2023-01-30T18:54:44.337Z,2.3
2023-01-30T19:00:28.857Z,2.7
2023-01-30T19:06:14.107Z,3
2023-01-30T19:11:58.011Z,3
2023-01-30T19:17:41.895Z,3
2023-01-30T19:23:26.993Z,3.4
2023-01-30T19:29:11.184Z,3.3
2023-01-30T19:34:55.098Z,3.6
2023-01-30T19:40:41.297Z,3.4
2023-01-30T19:46:25.221Z,3.6
2023-01-30T19:52:09.535Z,3.4
2023-01-30T19:57:53.595Z,3.3
2023-01-30T20:03:37.758Z,3.6
2023-01-30T20:09:21.440Z,3.9
2023-01-30T20:15:05.471Z,3.9
2023-01-30T20:20:49.231Z,3.4
2023-01-30T20:26:34.053Z,3.7
2023-01-30T20:32:18.087Z,3.9
2023-01-30T20:38:02.435Z,3.6
2023-01-30T20:43:48.745Z,3.3
2023-01-30T20:49:32.680Z,3.7
2023-01-30T20:55:16.655Z,3.9
2023-01-30T21:01:06.948Z,3.7
2023-01-30T21:06:50.687Z,4
2023-01-30T21:12:34.873Z,4
2023-01-30T21:18:18.561Z,4
2023-01-30T21:24:03.518Z,3.9
2023-01-30T21:29:47.169Z,4.1
2023-01-30T21:35:31.131Z,4.1
2023-01-30T21:41:16.629Z,3.9
2023-01-30T21:47:00.431Z,4.3
2023-01-30T21:52:44.296Z,4.7
2023-01-30T21:58:33.509Z,4.3
2023-01-30T22:04:17.161Z,5.5
2023-01-30T22:10:01.123Z,4.1
2023-01-30T22:15:44.922Z,4.4
2023-01-30T22:21:29.870Z,4.7
2023-01-30T22:27:13.960Z,4.4
2023-01-30T22:32:58.596Z,4.6
2023-01-30T22:38:43.630Z,4.6
2023-01-30T22:44:27.641Z,4.6
2023-01-30T22:50:12.244Z,4.6
2023-01-30T22:55:56.265Z,4.6
2023-01-30T23:01:41.822Z,4.6
2023-01-30T23:07:25.370Z,4.5
2023-01-30T23:13:09.191Z,4.4
2023-01-30T23:18:53.109Z,4.7
2023-01-30T23:24:37.787Z,4.3
2023-01-30T23:30:24.234Z,4.4
2023-01-30T23:36:10.098Z,4.7
2023-01-30T23:41:53.990Z,4.5
2023-01-30T23:47:38.887Z,4.3
2023-01-30T23:53:23.049Z,5.3
2023-01-30T23:59:07.713Z,5.6
